Westgard — PDBQ — position and weather

sailwx.info

Track history (hours):
 
Tides and Currents Weather Stations Pressure Air Temp Water Temp Dewpoint Dewpoint Depression Visibility Wind Speed Wind Dir Waves Ship Positions

Westgard

Last reported at 2017-May-23 11:29 UTC. Time now 2017-May-23 12:43 UTC.
Position N 60°01' E 029°36'.

Length 89 m; draft 5.5 m.

Type: Ship. MMSI: 246457000.

Date/timePositionNaut miles runAvg speedWind from/ knotsBaromVisibWave heightAir tempDewpointWater temp
2017-May-23 11:29N 60°01' E 029°36'510.3
2017-May-23 11:00N 59°59' E 029°45'3 5.7
2017-May-23 10:30N 59°56' E 029°47'0 0.0
2017-May-21 13:53N 59°56' E 029°47'3 5.9
2017-May-21 13:22N 59°59' E 029°46'20 8.0
2017-May-21 10:51N 60°02' E 029°06'410.2
2017-May-21 10:29N 60°02' E 028°58'510.3
2017-May-21 10:00N 60°02' E 028°48'510.2
2017-May-21 09:30N 60°02' E 028°38'510.0
2017-May-21 09:00N 60°03' E 028°28'510.2
2017-May-21 08:30N 60°05' E 028°19'510.0
2017-May-21 08:00N 60°08' E 028°10'510.1
2017-May-21 07:31N 60°09' E 028°01'610.3
2017-May-21 06:53N 60°10' E 027°48'410.5
2017-May-21 06:30N 60°09' E 027°41'611.3
2017-May-21 06:01N 60°06' E 027°31'611.4
2017-May-21 05:30N 60°03' E 027°21'711.4
2017-May-21 04:55N 59°60' E 027°09'511.0
2017-May-21 04:28N 59°58' E 026°60'611.6
2017-May-21 03:57N 59°59' E 026°48'611.3
2017-May-21 03:27N 59°59' E 026°37'8110.9
2017-May-20 20:05N 59°39' E 024°01'110.2
2017-May-20 20:00N 59°39' E 023°60'510.3
2017-May-20 19:30N 59°37' E 023°50'610.6
2017-May-20 18:59N 59°35' E 023°40'510.9
2017-May-20 18:30N 59°34' E 023°30'183 8.8
2017-May-19 21:43N 59°19' E 017°32'511.6
2017-May-19 21:19N 59°23' E 017°26'3 0.1
2017-May-18 02:12N 59°26' E 017°24'210.9
2017-May-18 02:00N 59°24' E 017°26'510.8
2017-May-18 01:30N 59°19' E 017°32'181 9.7
2017-May-17 06:54N 56°20' E 016°54'410.7
2017-May-17 06:30N 56°15' E 016°53'510.7
2017-May-17 06:00N 56°10' E 016°51'510.3
2017-May-17 05:30N 56°05' E 016°48'510.7
2017-May-17 05:00N 56°02' E 016°40'510.7
2017-May-17 04:30N 55°59' E 016°32'510.7
2017-May-17 04:00N 55°56' E 016°24'510.6
2017-May-17 03:30N 55°54' E 016°16'510.5
2017-May-17 03:00N 55°51' E 016°07'510.4
2017-May-17 02:30N 55°49' E 015°59'510.5
2017-May-17 02:00N 55°46' E 015°51'510.5
2017-May-17 01:30N 55°44' E 015°43'510.6
2017-May-17 01:00N 55°41' E 015°35'510.3
2017-May-17 00:30N 55°38' E 015°27'510.5
2017-May-17 00:00N 55°36' E 015°19'510.6
2017-May-16 23:30N 55°33' E 015°10'510.6
2017-May-16 23:00N 55°31' E 015°02'510.7
2017-May-16 22:30N 55°28' E 014°54'510.6
2017-May-16 22:00N 55°25' E 014°46'510.4
2017-May-16 21:30N 55°22' E 014°39'510.8
2017-May-16 21:00N 55°18' E 014°33'510.7
2017-May-16 20:30N 55°14' E 014°26'510.5
2017-May-16 20:00N 55°10' E 014°20'510.6
2017-May-16 19:30N 55°07' E 014°14'510.6
2017-May-16 19:00N 55°02' E 014°08'510.3
2017-May-16 18:29N 55°00' E 013°59'510.3
2017-May-16 18:00N 54°58' E 013°52'510.4
2017-May-16 17:30N 54°56' E 013°43'610.7
2017-May-16 16:58N 54°53' E 013°34'610.3
2017-May-16 16:26N 54°51' E 013°25'1710.2
2017-May-16 14:47N 54°44' E 012°59'310.2
2017-May-16 14:30N 54°43' E 012°55'1510.3
2017-May-16 13:01N 54°36' E 012°31'0 9.8
2017-May-16 13:00N 54°35' E 012°31'510.1
2017-May-16 12:30N 54°33' E 012°23'710.0
2017-May-16 11:48N 54°28' E 012°14'310.6
2017-May-16 11:30N 54°26' E 012°11'510.0
2017-May-16 11:00N 54°25' E 012°03'31 9.8
2017-May-16 07:50N 54°33' E 011°11'410.1
2017-May-16 07:27N 54°33' E 011°04'68 7.2
2017-May-15 22:04N 54°05' E 009°19'1 8.3
2017-May-15 22:01N 54°04' E 009°19'2 3.4
2017-May-15 21:28N 54°03' E 009°18'2 5.3
2017-May-15 21:01N 54°00' E 009°18'4 8.1
2017-May-15 20:31N 53°57' E 009°14'4 7.7
2017-May-15 20:00N 53°54' E 009°09'0 0.1
2017-May-15 19:30N 53°54' E 009°09'0 0.0
2017-May-15 19:00N 53°54' E 009°09'0 0.1
2017-May-15 18:31N 53°54' E 009°09'0 0.9
2017-May-15 18:00N 53°54' E 009°09'1 2.5
2017-May-15 17:30N 53°53' E 009°07'3 5.7
2017-May-15 17:00N 53°52' E 009°02'510.5
2017-May-15 16:30N 53°50' E 008°54'13310.5
2017-May-15 03:51N 53°30' E 005°13'3 9.2
2017-May-15 03:30N 53°29' E 005°07'5 9.4
2017-May-15 03:00N 53°28' E 005°00'5 9.3
2017-May-15 02:27N 53°25' E 004°52'4 9.4
2017-May-15 01:59N 53°24' E 004°46'5 9.1
2017-May-15 01:24N 53°20' E 004°40'4 9.6
2017-May-15 01:00N 53°16' E 004°37'5 9.7
2017-May-15 00:30N 53°12' E 004°33'5 9.5
2017-May-15 00:00N 53°08' E 004°29'5 9.8
2017-May-14 23:30N 53°04' E 004°24'5 9.8
2017-May-14 23:00N 52°60' E 004°20'5 9.9
2017-May-14 22:30N 52°55' E 004°16'710.0
2017-May-14 21:49N 52°49' E 004°10'310.2
2017-May-14 21:30N 52°47' E 004°07'510.3
2017-May-14 21:00N 52°43' E 004°01'510.6
2017-May-14 20:30N 52°39' E 003°55'510.9
2017-May-14 20:00N 52°35' E 003°50'611.0
2017-May-14 19:30N 52°31' E 003°44'611.2
2017-May-14 19:00N 52°27' E 003°38'611.3
2017-May-14 18:30N 52°23' E 003°31'611.5
2017-May-14 18:00N 52°19' E 003°24'611.7
2017-May-14 17:30N 52°14' E 003°17'712.0
2017-May-14 16:57N 52°10' E 003°10'512.2
2017-May-14 16:30N 52°05' E 003°05'712.2
2017-May-14 15:57N 51°60' E 002°58'512.3
2017-May-14 15:30N 51°56' E 002°52'2112.1
2017-May-14 13:44N 51°39' E 002°30'811.4
2017-May-14 13:04N 51°33' E 002°23'111.0
2017-May-14 13:00N 51°33' E 002°22'510.6
2017-May-14 12:30N 51°29' E 002°17'510.6
2017-May-14 11:59N 51°24' E 002°12'5 9.7
2017-May-14 11:30N 51°20' E 002°08'5 9.5
2017-May-14 11:00N 51°16' E 002°04'4 8.5
2017-May-14 10:30N 51°13' E 001°60'4 8.4
2017-May-14 10:00N 51°10' E 001°55'4 8.2
2017-May-14 09:30N 51°07' E 001°50'4 7.8
2017-May-14 09:00N 51°05' E 001°45'4 8.2
2017-May-14 08:30N 51°02' E 001°41'4 8.2
2017-May-14 08:00N 50°59' E 001°36'60 9.4
2017-May-14 01:37N 50°25' E 000°17'110.5
2017-May-14 01:29N 50°25' E 000°15'510.8
2017-May-14 01:00N 50°23' E 000°07'511.1
2017-May-14 00:30N 50°22' W 000°01'611.6
2017-May-14 00:00N 50°21' W 000°10'612.1
2017-May-13 23:30N 50°19' W 000°19'8711.5
2017-May-13 15:58N 50°08' W 002°33'4 8.2
2017-May-13 15:30N 50°08' W 002°39'4 8.4
2017-May-13 14:58N 50°07' W 002°46'4 8.7
2017-May-13 14:31N 50°06' W 002°52'9 9.2
2017-May-13 13:30N 50°05' W 003°06'5 9.7
2017-May-13 13:01N 50°04' W 003°14'510.0
2017-May-13 12:30N 50°04' W 003°22'510.2
2017-May-13 12:01N 50°03' W 003°29'510.2
2017-May-13 11:30N 50°02' W 003°37'  
Track history (hours):
 
Tides and Currents Weather Stations Pressure Air Temp Water Temp Dewpoint Dewpoint Depression Visibility Wind Speed Wind Dir Waves Ship Positions

Westgard

Last reported at 2017-May-23 11:29 UTC. Time now 2017-May-23 12:43 UTC.
Position N 60°01' E 029°36'.

Length 89 m; draft 5.5 m.

Type: Ship. MMSI: 246457000.

Date/timePositionNaut miles runAvg speedWind from/ knotsBaromVisibWave heightAir tempDewpointWater temp
2017-May-23 11:29N 60°01' E 029°36'510.3
2017-May-23 11:00N 59°59' E 029°45'3 5.7
2017-May-23 10:30N 59°56' E 029°47'0 0.0
2017-May-21 13:53N 59°56' E 029°47'3 5.9
2017-May-21 13:22N 59°59' E 029°46'20 8.0
2017-May-21 10:51N 60°02' E 029°06'410.2
2017-May-21 10:29N 60°02' E 028°58'510.3
2017-May-21 10:00N 60°02' E 028°48'510.2
2017-May-21 09:30N 60°02' E 028°38'510.0
2017-May-21 09:00N 60°03' E 028°28'510.2
2017-May-21 08:30N 60°05' E 028°19'510.0
2017-May-21 08:00N 60°08' E 028°10'510.1
2017-May-21 07:31N 60°09' E 028°01'610.3
2017-May-21 06:53N 60°10' E 027°48'410.5
2017-May-21 06:30N 60°09' E 027°41'611.3
2017-May-21 06:01N 60°06' E 027°31'611.4
2017-May-21 05:30N 60°03' E 027°21'711.4
2017-May-21 04:55N 59°60' E 027°09'511.0
2017-May-21 04:28N 59°58' E 026°60'611.6
2017-May-21 03:57N 59°59' E 026°48'611.3
2017-May-21 03:27N 59°59' E 026°37'8110.9
2017-May-20 20:05N 59°39' E 024°01'110.2
2017-May-20 20:00N 59°39' E 023°60'510.3
2017-May-20 19:30N 59°37' E 023°50'610.6
2017-May-20 18:59N 59°35' E 023°40'510.9
2017-May-20 18:30N 59°34' E 023°30'183 8.8
2017-May-19 21:43N 59°19' E 017°32'511.6
2017-May-19 21:19N 59°23' E 017°26'3 0.1
2017-May-18 02:12N 59°26' E 017°24'210.9
2017-May-18 02:00N 59°24' E 017°26'510.8
2017-May-18 01:30N 59°19' E 017°32'181 9.7
2017-May-17 06:54N 56°20' E 016°54'410.7
2017-May-17 06:30N 56°15' E 016°53'510.7
2017-May-17 06:00N 56°10' E 016°51'510.3
2017-May-17 05:30N 56°05' E 016°48'510.7
2017-May-17 05:00N 56°02' E 016°40'510.7
2017-May-17 04:30N 55°59' E 016°32'510.7
2017-May-17 04:00N 55°56' E 016°24'510.6
2017-May-17 03:30N 55°54' E 016°16'510.5
2017-May-17 03:00N 55°51' E 016°07'510.4
2017-May-17 02:30N 55°49' E 015°59'510.5
2017-May-17 02:00N 55°46' E 015°51'510.5
2017-May-17 01:30N 55°44' E 015°43'510.6
2017-May-17 01:00N 55°41' E 015°35'510.3
2017-May-17 00:30N 55°38' E 015°27'510.5
2017-May-17 00:00N 55°36' E 015°19'510.6
2017-May-16 23:30N 55°33' E 015°10'510.6
2017-May-16 23:00N 55°31' E 015°02'510.7
2017-May-16 22:30N 55°28' E 014°54'510.6
2017-May-16 22:00N 55°25' E 014°46'510.4
2017-May-16 21:30N 55°22' E 014°39'510.8
2017-May-16 21:00N 55°18' E 014°33'510.7
2017-May-16 20:30N 55°14' E 014°26'510.5
2017-May-16 20:00N 55°10' E 014°20'510.6
2017-May-16 19:30N 55°07' E 014°14'510.6
2017-May-16 19:00N 55°02' E 014°08'510.3
2017-May-16 18:29N 55°00' E 013°59'510.3
2017-May-16 18:00N 54°58' E 013°52'510.4
2017-May-16 17:30N 54°56' E 013°43'610.7
2017-May-16 16:58N 54°53' E 013°34'610.3
2017-May-16 16:26N 54°51' E 013°25'1710.2
2017-May-16 14:47N 54°44' E 012°59'310.2
2017-May-16 14:30N 54°43' E 012°55'1510.3
2017-May-16 13:01N 54°36' E 012°31'0 9.8
2017-May-16 13:00N 54°35' E 012°31'510.1
2017-May-16 12:30N 54°33' E 012°23'710.0
2017-May-16 11:48N 54°28' E 012°14'310.6
2017-May-16 11:30N 54°26' E 012°11'510.0
2017-May-16 11:00N 54°25' E 012°03'31 9.8
2017-May-16 07:50N 54°33' E 011°11'410.1
2017-May-16 07:27N 54°33' E 011°04'68 7.2
2017-May-15 22:04N 54°05' E 009°19'1 8.3
2017-May-15 22:01N 54°04' E 009°19'2 3.4
2017-May-15 21:28N 54°03' E 009°18'2 5.3
2017-May-15 21:01N 54°00' E 009°18'4 8.1
2017-May-15 20:31N 53°57' E 009°14'4 7.7
2017-May-15 20:00N 53°54' E 009°09'0 0.1
2017-May-15 19:30N 53°54' E 009°09'0 0.0
2017-May-15 19:00N 53°54' E 009°09'0 0.1
2017-May-15 18:31N 53°54' E 009°09'0 0.9
2017-May-15 18:00N 53°54' E 009°09'1 2.5
2017-May-15 17:30N 53°53' E 009°07'3 5.7
2017-May-15 17:00N 53°52' E 009°02'510.5
2017-May-15 16:30N 53°50' E 008°54'13310.5
2017-May-15 03:51N 53°30' E 005°13'3 9.2
2017-May-15 03:30N 53°29' E 005°07'5 9.4
2017-May-15 03:00N 53°28' E 005°00'5 9.3
2017-May-15 02:27N 53°25' E 004°52'4 9.4
2017-May-15 01:59N 53°24' E 004°46'5 9.1
2017-May-15 01:24N 53°20' E 004°40'4 9.6
2017-May-15 01:00N 53°16' E 004°37'5 9.7
2017-May-15 00:30N 53°12' E 004°33'5 9.5
2017-May-15 00:00N 53°08' E 004°29'5 9.8
2017-May-14 23:30N 53°04' E 004°24'5 9.8
2017-May-14 23:00N 52°60' E 004°20'5 9.9
2017-May-14 22:30N 52°55' E 004°16'710.0
2017-May-14 21:49N 52°49' E 004°10'310.2
2017-May-14 21:30N 52°47' E 004°07'510.3
2017-May-14 21:00N 52°43' E 004°01'510.6
2017-May-14 20:30N 52°39' E 003°55'510.9
2017-May-14 20:00N 52°35' E 003°50'611.0
2017-May-14 19:30N 52°31' E 003°44'611.2
2017-May-14 19:00N 52°27' E 003°38'611.3
2017-May-14 18:30N 52°23' E 003°31'611.5
2017-May-14 18:00N 52°19' E 003°24'611.7
2017-May-14 17:30N 52°14' E 003°17'712.0
2017-May-14 16:57N 52°10' E 003°10'512.2
2017-May-14 16:30N 52°05' E 003°05'712.2
2017-May-14 15:57N 51°60' E 002°58'512.3
2017-May-14 15:30N 51°56' E 002°52'2112.1
2017-May-14 13:44N 51°39' E 002°30'811.4
2017-May-14 13:04N 51°33' E 002°23'111.0
2017-May-14 13:00N 51°33' E 002°22'510.6
2017-May-14 12:30N 51°29' E 002°17'510.6
2017-May-14 11:59N 51°24' E 002°12'5 9.7
2017-May-14 11:30N 51°20' E 002°08'5 9.5
2017-May-14 11:00N 51°16' E 002°04'4 8.5
2017-May-14 10:30N 51°13' E 001°60'4 8.4
2017-May-14 10:00N 51°10' E 001°55'4 8.2
2017-May-14 09:30N 51°07' E 001°50'4 7.8
2017-May-14 09:00N 51°05' E 001°45'4 8.2
2017-May-14 08:30N 51°02' E 001°41'4 8.2
2017-May-14 08:00N 50°59' E 001°36'60 9.4
2017-May-14 01:37N 50°25' E 000°17'110.5
2017-May-14 01:29N 50°25' E 000°15'510.8
2017-May-14 01:00N 50°23' E 000°07'511.1
2017-May-14 00:30N 50°22' W 000°01'611.6
2017-May-14 00:00N 50°21' W 000°10'612.1
2017-May-13 23:30N 50°19' W 000°19'8711.5
2017-May-13 15:58N 50°08' W 002°33'4 8.2
2017-May-13 15:30N 50°08' W 002°39'4 8.4
2017-May-13 14:58N 50°07' W 002°46'4 8.7
2017-May-13 14:31N 50°06' W 002°52'9 9.2
2017-May-13 13:30N 50°05' W 003°06'5 9.7
2017-May-13 13:01N 50°04' W 003°14'510.0
2017-May-13 12:30N 50°04' W 003°22'510.2
2017-May-13 12:01N 50°03' W 003°29'510.2
2017-May-13 11:30N 50°02' W 003°37'  

Dump ship's entire track history